Gaziantep, Türkiye

Saat: 02:40 PM EET Tarih: 02 Mart 2015 (GMT +0200)
City Center | Change Station
CLOSE
Current Station
Kişisel Havadurumu İstasyonları
Location: Gaziantep, GAZIANTEP
Yükseklik: 2779 ft
Nearby Weather Stations

Elev 2779 ft 37.07 °N, 37.37 °E | Updated 29 seconds ago

Mostly Cloudy
Çok Bulutlu
54.5
Feels Like 54.5
N
4.5
Rüzgar Değişken Rüzgar from BGB
Gusts 18.3 mil

Bugün
High -- | Low -- F°
--% Chance of Precip.
Dün
High -- | Low -- F°
Precip. -- inç
6:00 AM 5:25 PM
Şişkin Ay, 91% visible
Basınç 29.95 inç
Görüş Uzaklığı 6.2 mil
Bulutlar Az Bulutlu 3000 ft
Çok Bulutlu 9000 ft
Çiğ noktası 50
Nem oranı 85%
Yağış 0.05 inç
Kar Kalınlığı Not available.
2 out of 12
Pollen Not available.
Hava Kalitesi Not available.
Flu Activity Not available.
METAR LTAJ 021220Z 24012KT 9999 SCT030TCU BKN090 14/06 Q1014 NOSIG

More Conditions Fewer Conditions

Basınç 29.95 inç
Görüş Uzaklığı 6.2 mil
Bulutlar Az Bulutlu 3000 ft
Çok Bulutlu 9000 ft
Çiğ noktası 50
Nem oranı 85%
Yağış 0.05 inç
Kar Kalınlığı Not available.
2 out of 12
Pollen Not available.
Hava Kalitesi Not available.
Flu Activity Not available.
METAR LTAJ 021220Z 24012KT 9999 SCT030TCU BKN090 14/06 Q1014 NOSIG

More Conditions Fewer Conditions

10-Day Weather Forecast

Almanac

Gökbilim

Mar. 02, 2015 Rise Set
Gerçek Zaman
Günlük Tan
Deniz Tanı
Geceyarısı Yıldız Zamanı
Ay
Görünür Işığın Uzunluğu
Günün Uzunluğu
Tomorrow will be .
, % of the Moon is Illuminated

Günün En Yüksekleri

Country Highs Country Lows

Community

WunderPhotos

Upload Photos

1,801,772 photos uploaded!

WunderBlogs® & News

Nearby

Hava Kalitesi

  Hava Kalitesi Hava Kalitesi Endeksi Kirletici
Not available.

Kar Kalınlığı

Station Depth Yükseklik

Earthquake Activity

Şehir Distance Mag. Time & Date
Minimum magnitude displayed is 2.5.

Coastal Water Temperatures

Yer Sıcaklık

Nearby Weather Stations